Time;durP1;ratioP1;P1;durP2;ratioP2;P2;SDS_P1;SDS_P2;PMS_P1;PMS_P2;Temp;Humidity;BMP_temperature;BMP_pressure;BME280_temperature;BME280_humidity;BME280_pressure;Samples;Min_cycle;Max_cycle;Signal;HPM_P1;HPM_P2
2021/07/16 00:00:21;;;;;;;22.25;6.00;;;;;;;15.21;73.46;102344.41;5015470;28;20083;-71
2021/07/16 00:02:51;;;;;;;20.52;6.25;;;;;;;15.21;73.57;102343.53;5014776;28;20033;-71
2021/07/16 00:05:16;;;;;;;33.90;7.40;;;;;;;15.19;72.94;102343.66;5015224;28;20034;-71
2021/07/16 00:07:42;;;;;;;30.40;6.68;;;;;;;15.18;73.49;102347.31;5014567;28;20033;-71
2021/07/16 00:10:10;;;;;;;26.33;6.57;;;;;;;15.18;73.12;102343.78;5015179;28;20034;-71
2021/07/16 00:12:36;;;;;;;32.13;6.80;;;;;;;15.17;72.99;102340.28;5014417;28;20108;-72
2021/07/16 00:15:03;;;;;;;19.92;6.50;;;;;;;15.16;73.10;102339.41;5015085;28;20077;-71
2021/07/16 00:17:28;;;;;;;30.30;6.53;;;;;;;15.19;73.44;102340.97;5015013;28;20029;-71
2021/07/16 00:19:54;;;;;;;27.70;6.65;;;;;;;15.16;73.20;102336.72;5014484;28;20030;-72
2021/07/16 00:22:19;;;;;;;25.52;7.10;;;;;;;15.15;72.14;102337.72;5015057;28;20121;-71
2021/07/16 00:24:45;;;;;;;18.15;5.88;;;;;;;15.14;72.93;102344.06;5012959;28;20046;-71
2021/07/16 00:27:11;;;;;;;24.98;6.68;;;;;;;15.11;71.89;102341.66;5014914;28;20068;-71
2021/07/16 00:29:36;;;;;;;21.48;6.13;;;;;;;15.10;71.91;102339.09;5015102;28;20065;-71
2021/07/16 00:32:02;;;;;;;24.05;6.50;;;;;;;15.08;72.03;102333.03;5014884;28;20060;-71
2021/07/16 00:34:27;;;;;;;23.92;5.93;;;;;;;15.08;71.37;102341.09;4997496;28;20569;-71
2021/07/16 00:36:53;;;;;;;25.08;6.85;;;;;;;15.05;71.45;102339.50;5014226;28;20538;-71
2021/07/16 00:39:18;;;;;;;32.72;6.05;;;;;;;15.04;70.75;102342.31;5014768;28;20084;-71
2021/07/16 00:41:43;;;;;;;29.67;6.30;;;;;;;15.04;70.37;102342.31;5013936;28;20489;-71
2021/07/16 00:44:09;;;;;;;19.58;5.32;;;;;;;15.04;70.10;102347.69;5014627;28;20042;-70
2021/07/16 00:46:34;;;;;;;22.52;5.53;;;;;;;15.02;70.43;102346.94;5014719;28;20030;-70
2021/07/16 00:49:00;;;;;;;23.65;6.13;;;;;;;14.99;70.02;102356.97;5013920;28;20109;-70
2021/07/16 00:51:25;;;;;;;22.10;6.35;;;;;;;14.99;69.97;102350.75;5014316;28;20034;-70
2021/07/16 00:53:51;;;;;;;23.13;6.20;;;;;;;14.96;69.93;102354.53;5013406;28;20128;-71
2021/07/16 00:56:16;;;;;;;24.38;5.45;;;;;;;14.97;69.97;102353.56;5014284;28;20033;-71
2021/07/16 00:58:42;;;;;;;21.08;5.43;;;;;;;14.96;69.52;102353.69;5013887;28;20040;-70
2021/07/16 01:01:07;;;;;;;19.80;5.05;;;;;;;14.96;70.02;102357.22;5014445;28;20034;-71
2021/07/16 01:03:33;;;;;;;25.17;6.05;;;;;;;14.95;70.36;102358.19;5014223;28;20103;-70
2021/07/16 01:06:01;;;;;;;23.38;6.30;;;;;;;14.96;70.71;102364.41;5013463;28;20397;-71
2021/07/16 01:08:27;;;;;;;25.05;5.88;;;;;;;14.95;71.09;102354.66;5014070;28;20096;-71
2021/07/16 01:10:52;;;;;;;33.50;6.70;;;;;;;14.92;70.76;102362.97;5013306;28;20062;-71
2021/07/16 01:13:18;;;;;;;22.48;5.95;;;;;;;14.91;70.99;102361.25;5013871;28;20040;-71
2021/07/16 01:15:43;;;;;;;29.17;5.63;;;;;;;14.92;70.82;102361.13;5012303;28;20549;-71
2021/07/16 01:18:09;;;;;;;23.15;6.07;;;;;;;14.92;70.24;102368.34;5014023;28;20026;-70
2021/07/16 01:20:35;;;;;;;22.33;5.80;;;;;;;14.89;70.42;102358.72;5014067;28;20025;-71
2021/07/16 01:23:07;;;;;;;17.75;4.85;;;;;;;14.88;70.52;102366.88;5013147;28;20030;-71
2021/07/16 01:25:33;;;;;;;18.17;5.68;;;;;;;14.86;71.03;102375.06;5013886;28;20042;-70
2021/07/16 01:28:01;;;;;;;19.25;5.47;;;;;;;14.85;70.95;102372.50;5013333;28;20429;-71
2021/07/16 01:30:32;;;;;;;22.73;6.30;;;;;;;14.82;70.59;102368.25;5013974;28;20029;-70
2021/07/16 01:33:01;;;;;;;18.75;5.50;;;;;;;14.82;70.01;102378.97;5013008;28;20064;-71
2021/07/16 01:35:27;;;;;;;18.60;4.80;;;;;;;14.80;68.95;102373.75;5013436;28;20117;-71
2021/07/16 01:37:53;;;;;;;18.45;4.80;;;;;;;14.80;69.13;102373.75;5013121;28;20030;-71
2021/07/16 01:40:21;;;;;;;18.27;5.57;;;;;;;14.79;69.83;102366.69;5013758;28;20060;-71
2021/07/16 01:42:56;;;;;;;13.57;4.65;;;;;;;14.77;68.97;102371.31;5012951;28;20029;-71
2021/07/16 01:45:25;;;;;;;21.95;4.82;;;;;;;14.76;69.27;102361.59;5013428;28;20038;-71
2021/07/16 01:47:55;;;;;;;19.00;5.05;;;;;;;14.74;69.25;102366.22;5012744;28;20076;-71
2021/07/16 01:50:20;;;;;;;26.27;4.90;;;;;;;14.73;69.69;102367.19;5013137;28;20041;-71
2021/07/16 01:52:47;;;;;;;22.30;4.60;;;;;;;14.71;69.81;102371.84;5013128;28;20041;-73
2021/07/16 01:55:15;;;;;;;25.98;5.10;;;;;;;14.70;70.69;102378.16;5013106;28;20065;-71
2021/07/16 01:57:44;;;;;;;17.30;3.97;;;;;;;14.70;70.69;102377.34;5013352;28;20041;-71
2021/07/16 02:00:11;;;;;;;21.63;5.30;;;;;;;14.68;71.62;102368.59;5012540;28;20034;-71
2021/07/16 02:02:45;;;;;;;17.15;4.75;;;;;;;14.67;71.47;102365.03;5013789;28;20037;-71
2021/07/16 02:05:10;;;;;;;13.50;4.78;;;;;;;14.67;70.71;102366.88;5012505;28;20041;-71
2021/07/16 02:07:36;;;;;;;19.95;5.13;;;;;;;14.68;69.80;102371.25;5013233;28;20037;-71
2021/07/16 02:10:01;;;;;;;21.25;4.55;;;;;;;14.67;70.09;102365.03;5012556;28;20516;-71
2021/07/16 02:12:27;;;;;;;23.13;4.75;;;;;;;14.68;69.74;102368.59;5012689;28;20466;-71
2021/07/16 02:14:52;;;;;;;22.02;4.88;;;;;;;14.67;69.11;102372.22;5011057;28;20068;-71
2021/07/16 02:17:17;;;;;;;20.52;4.20;;;;;;;14.67;69.21;102378.44;5012835;28;20493;-70
2021/07/16 02:19:43;;;;;;;18.02;4.75;;;;;;;14.67;69.25;102380.28;5012692;28;20034;-71
2021/07/16 02:22:10;;;;;;;16.83;5.18;;;;;;;14.64;68.54;102373.34;5012318;28;20256;-71
2021/07/16 02:24:35;;;;;;;21.73;4.15;;;;;;;14.62;69.01;102362.75;5012771;28;20042;-71
2021/07/16 02:27:03;;;;;;;18.15;4.50;;;;;;;14.62;68.45;102372.63;5012092;28;20053;-71
2021/07/16 02:29:29;;;;;;;20.42;5.05;;;;;;;14.61;68.82;102370.91;5012768;28;20034;-70
2021/07/16 02:31:54;;;;;;;20.35;4.78;;;;;;;14.58;69.61;102374.66;5012086;28;20033;-70
2021/07/16 02:34:19;;;;;;;22.17;4.13;;;;;;;14.56;69.11;102381.97;5012671;28;20033;-71
2021/07/16 02:36:45;;;;;;;19.63;4.35;;;;;;;14.56;68.97;102389.19;5012618;28;20469;-71
2021/07/16 02:39:10;;;;;;;15.73;4.68;;;;;;;14.54;69.01;102391.09;5011974;28;20229;-71
2021/07/16 02:41:36;;;;;;;15.75;3.83;;;;;;;14.52;68.75;102387.72;5012546;28;20057;-71
2021/07/16 02:44:01;;;;;;;18.27;4.50;;;;;;;14.51;69.27;102391.38;5011857;28;20038;-71
2021/07/16 02:46:27;;;;;;;23.05;4.32;;;;;;;14.51;68.89;102391.38;5011278;28;20026;-70
2021/07/16 02:48:52;;;;;;;20.75;4.45;;;;;;;14.50;68.60;102378.97;5012146;28;20069;-74
2021/07/16 02:51:18;;;;;;;26.17;4.70;;;;;;;14.53;68.53;102381.41;5012509;28;20030;-71
2021/07/16 02:53:43;;;;;;;24.20;5.13;;;;;;;14.52;68.21;102371.66;5012067;28;20061;-70
2021/07/16 02:56:08;;;;;;;17.67;4.00;;;;;;;14.54;68.25;102372.38;5011863;28;20037;-71
2021/07/16 02:58:34;;;;;;;16.30;4.53;;;;;;;14.55;68.79;102369.56;5012612;28;20041;-71
2021/07/16 03:00:59;;;;;;;24.52;4.53;;;;;;;14.52;68.31;102372.50;5011804;28;20405;-71
2021/07/16 03:03:26;;;;;;;18.35;5.05;;;;;;;14.52;68.60;102382.38;5012213;28;20033;-71
2021/07/16 03:05:51;;;;;;;24.92;4.75;;;;;;;14.49;68.51;102383.47;5012340;28;20085;-71
2021/07/16 03:08:17;;;;;;;16.80;4.25;;;;;;;14.46;67.47;102376.56;5011670;28;20467;-71
2021/07/16 03:10:45;;;;;;;19.88;4.57;;;;;;;14.47;67.64;102372.03;5012299;28;20072;-71
2021/07/16 03:13:16;;;;;;;14.95;4.03;;;;;;;14.45;68.01;102372.16;5011555;28;20060;-71
2021/07/16 03:15:42;;;;;;;19.25;3.92;;;;;;;14.45;67.67;102377.53;5013086;28;20156;-70
2021/07/16 03:18:08;;;;;;;18.52;4.28;;;;;;;14.44;68.11;102374.97;5015353;28;20030;-71
2021/07/16 03:20:45;;;;;;;19.35;4.60;;;;;;;14.42;68.01;102377.78;5016158;28;20022;-71
2021/07/16 03:23:12;;;;;;;22.42;5.05;;;;;;;14.40;68.33;102377.03;5015527;28;20041;-71
2021/07/16 03:25:38;;;;;;;23.60;4.15;;;;;;;14.40;68.13;102377.03;5016072;28;20037;-71
2021/07/16 03:28:05;;;;;;;21.23;4.05;;;;;;;14.41;68.38;102377.91;5015346;28;20034;-71
2021/07/16 03:30:32;;;;;;;19.00;4.18;;;;;;;14.40;68.71;102374.34;5015846;28;20109;-71
2021/07/16 03:32:58;;;;;;;19.63;4.50;;;;;;;14.41;68.59;102376.06;5015453;28;20037;-75
2021/07/16 03:35:25;;;;;;;24.85;4.50;;;;;;;14.41;68.86;102381.41;5015801;28;20114;-71
2021/07/16 03:37:52;;;;;;;21.45;4.35;;;;;;;14.42;68.34;102382.25;5015748;28;20037;-71
2021/07/16 03:40:19;;;;;;;14.35;4.03;;;;;;;14.42;68.62;102371.56;5015019;28;20033;-71
2021/07/16 03:42:45;;;;;;;22.40;4.45;;;;;;;14.42;69.02;102387.63;5015852;28;20080;-71
2021/07/16 03:45:13;;;;;;;26.42;5.32;;;;;;;14.41;68.63;102389.47;5014829;28;20041;-71
2021/07/16 03:47:40;;;;;;;19.15;4.82;;;;;;;14.42;69.39;102380.47;5015722;28;20025;-71
2021/07/16 03:50:06;;;;;;;19.98;4.28;;;;;;;14.41;68.68;102372.56;5015010;28;20035;-71
2021/07/16 03:52:31;;;;;;;15.52;4.50;;;;;;;14.42;68.28;102377.78;5015377;28;20057;-71
2021/07/16 03:54:56;;;;;;;18.27;4.43;;;;;;;14.42;68.43;102382.25;5015063;28;20065;-71
2021/07/16 03:57:22;;;;;;;17.10;4.30;;;;;;;14.43;69.09;102382.13;5014589;28;20528;-71
2021/07/16 03:59:48;;;;;;;15.43;3.85;;;;;;;14.43;68.47;102384.81;5015269;28;20034;-70
2021/07/16 04:02:13;;;;;;;24.00;4.13;;;;;;;14.43;67.92;102374.09;5014543;28;20121;-71
2021/07/16 04:04:39;;;;;;;19.33;4.25;;;;;;;14.44;68.30;102375.81;5015311;28;20153;-71
2021/07/16 04:07:06;;;;;;;20.15;4.50;;;;;;;14.42;68.05;102374.22;5014461;28;20038;-71
2021/07/16 04:09:32;;;;;;;18.65;3.88;;;;;;;14.41;68.37;102381.41;5015411;28;20033;-71
2021/07/16 04:12:07;;;;;;;24.15;4.95;;;;;;;14.41;68.63;102383.25;5015228;28;20034;-71
2021/07/16 04:14:40;;;;;;;24.90;4.43;;;;;;;14.39;68.24;102383.38;5015161;28;20070;-71
2021/07/16 04:17:14;;;;;;;23.73;4.55;;;;;;;14.40;68.65;102384.22;5014782;28;20034;-71
2021/07/16 04:19:42;;;;;;;25.77;5.13;;;;;;;14.42;68.60;102391.16;5015343;28;20025;-71
2021/07/16 04:22:07;;;;;;;22.23;4.38;;;;;;;14.47;68.63;102388.09;5014379;28;20462;-71
2021/07/16 04:24:37;;;;;;;20.63;4.68;;;;;;;14.46;69.44;102397.09;5015072;28;20052;-71
2021/07/16 04:27:04;;;;;;;31.25;4.53;;;;;;;14.44;69.93;102394.56;5014262;28;20461;-71
2021/07/16 04:29:30;;;;;;;23.23;5.03;;;;;;;14.47;70.44;102398.81;5014773;28;20501;-71
2021/07/16 04:31:58;;;;;;;20.27;4.85;;;;;;;14.50;70.89;102403.09;5014857;28;20045;-71
2021/07/16 04:34:23;;;;;;;24.98;5.60;;;;;;;14.53;70.46;102397.47;5014103;28;20037;-71
2021/07/16 04:36:49;;;;;;;29.40;5.05;;;;;;;14.53;70.10;102398.31;5014913;28;20030;-71
2021/07/16 04:39:14;;;;;;;29.33;4.50;;;;;;;14.54;70.19;102402.69;5014221;28;20163;-71
2021/07/16 04:41:39;;;;;;;33.25;4.95;;;;;;;14.56;69.81;102407.94;5013443;28;20072;-70
2021/07/16 04:44:05;;;;;;;28.08;4.35;;;;;;;14.57;70.13;102394.41;5015118;28;20029;-70
2021/07/16 04:46:31;;;;;;;28.02;5.10;;;;;;;14.57;69.82;102399.75;5014724;28;20034;-71
2021/07/16 04:48:56;;;;;;;27.70;4.32;;;;;;;14.54;69.58;102394.66;5014797;28;20394;-70
2021/07/16 04:51:33;;;;;;;39.28;5.65;;;;;;;14.53;69.61;102400.16;5014594;28;20073;-70
2021/07/16 04:53:59;;;;;;;20.52;4.57;;;;;;;14.52;70.57;102404.63;5016602;28;20041;-72
2021/07/16 04:56:25;;;;;;;24.20;5.03;;;;;;;14.58;70.39;102414.00;5015797;28;20026;-70
2021/07/16 04:58:51;;;;;;;35.35;4.68;;;;;;;14.61;70.11;102409.28;5014773;28;20121;-71
2021/07/16 05:01:21;;;;;;;21.90;4.55;;;;;;;14.62;71.03;102400.25;5013722;28;20069;-71
2021/07/16 05:03:47;;;;;;;24.48;4.35;;;;;;;14.63;69.36;102398.44;5013115;28;20041;-70
2021/07/16 05:06:12;;;;;;;27.52;5.13;;;;;;;14.62;69.99;102399.41;5013539;28;20425;-71
2021/07/16 05:08:41;;;;;;;27.48;4.45;;;;;;;14.58;69.73;102401.44;5014150;28;20092;-70
2021/07/16 05:11:07;;;;;;;23.52;5.03;;;;;;;14.61;69.87;102403.06;5014259;28;20084;-70
2021/07/16 05:13:36;;;;;;;20.15;4.28;;;;;;;14.67;68.76;102410.56;5013520;28;20469;-70
2021/07/16 05:16:03;;;;;;;19.35;4.55;;;;;;;14.76;68.32;102401.78;5013957;28;20100;-71
2021/07/16 05:18:28;;;;;;;23.27;4.60;;;;;;;14.83;68.75;102398.59;5013317;28;20061;-70
2021/07/16 05:20:54;;;;;;;30.48;4.78;;;;;;;14.89;68.55;102406.13;5012430;28;20058;-71
2021/07/16 05:23:19;;;;;;;21.27;4.20;;;;;;;14.92;67.83;102403.16;5012979;28;20041;-71
2021/07/16 05:25:45;;;;;;;19.35;4.63;;;;;;;14.90;68.25;102407.78;5013908;28;20445;-70
2021/07/16 05:28:10;;;;;;;16.95;3.88;;;;;;;14.83;67.73;102407.47;5013901;28;20131;-70
2021/07/16 05:30:36;;;;;;;24.83;4.35;;;;;;;14.72;67.85;102411.06;5013371;28;20029;-71
2021/07/16 05:33:01;;;;;;;21.30;4.18;;;;;;;14.60;68.97;102422.75;5013782;28;20060;-70
2021/07/16 05:35:26;;;;;;;17.80;4.85;;;;;;;14.48;69.37;102423.75;5012957;28;20042;-70
2021/07/16 05:37:52;;;;;;;18.52;4.82;;;;;;;14.38;70.62;102423.69;5012870;28;20037;-71
2021/07/16 05:40:17;;;;;;;26.50;6.57;;;;;;;14.33;69.70;102429.41;5011545;28;20056;-71
2021/07/16 05:42:43;;;;;;;25.92;4.47;;;;;;;14.37;71.01;102430.84;5013563;28;20125;-71
2021/07/16 05:45:09;;;;;;;20.70;5.10;;;;;;;14.43;69.67;102424.97;5013404;28;20116;-71
2021/07/16 05:47:34;;;;;;;17.98;4.72;;;;;;;14.52;70.67;102433.25;5012711;28;20033;-70
2021/07/16 05:50:00;;;;;;;24.30;4.40;;;;;;;14.58;69.79;102433.59;5013293;28;20025;-70
2021/07/16 05:52:26;;;;;;;24.98;4.47;;;;;;;14.68;70.07;102428.38;5012664;28;20048;-71
2021/07/16 05:54:52;;;;;;;32.38;5.15;;;;;;;14.75;69.60;102434.03;5013124;28;20405;-72
2021/07/16 05:57:18;;;;;;;26.25;4.93;;;;;;;14.80;69.37;102435.38;5012934;28;20030;-71
2021/07/16 05:59:43;;;;;;;27.98;5.20;;;;;;;14.81;69.43;102430.88;5013156;28;20033;-73
2021/07/16 06:02:09;;;;;;;21.48;4.28;;;;;;;14.77;69.93;102438.31;5011918;28;20472;-70
2021/07/16 06:04:35;;;;;;;24.75;5.43;;;;;;;14.72;69.29;102439.66;5012498;28;20029;-70
2021/07/16 06:07:01;;;;;;;22.20;5.53;;;;;;;14.71;69.36;102433.47;5011909;28;20044;-70
2021/07/16 06:09:26;;;;;;;22.77;4.72;;;;;;;14.77;69.14;102440.97;5011186;28;20117;-70
2021/07/16 06:11:51;;;;;;;22.95;4.43;;;;;;;14.97;69.13;102444.69;5011814;28;20128;-71
2021/07/16 06:14:18;;;;;;;26.45;4.70;;;;;;;15.15;68.21;102447.66;5012657;28;20030;-74
2021/07/16 06:16:44;;;;;;;19.88;4.63;;;;;;;15.25;68.47;102444.19;5012883;28;20045;-70
2021/07/16 06:19:09;;;;;;;23.17;4.38;;;;;;;15.29;69.01;102446.47;5012806;28;20026;-71
2021/07/16 06:21:35;;;;;;;21.35;4.88;;;;;;;15.33;69.66;102450.59;5012196;28;20482;-70
2021/07/16 06:24:00;;;;;;;21.23;4.18;;;;;;;15.28;68.65;102458.16;5012829;28;20482;-70
2021/07/16 06:26:26;;;;;;;22.00;4.18;;;;;;;15.20;67.76;102457.09;5012212;28;20045;-73
2021/07/16 06:28:51;;;;;;;25.80;4.18;;;;;;;15.11;68.84;102459.59;5012788;28;20037;-70
2021/07/16 06:31:16;;;;;;;18.75;4.20;;;;;;;15.09;68.64;102466.94;5012644;28;20038;-70
2021/07/16 06:33:42;;;;;;;24.33;4.13;;;;;;;15.10;68.25;102462.41;5011979;28;20026;-70
2021/07/16 06:36:07;;;;;;;34.05;5.57;;;;;;;15.14;68.78;102463.88;5011279;28;20049;-70
2021/07/16 06:38:33;;;;;;;20.75;4.38;;;;;;;15.19;68.51;102471.50;5012072;28;20040;-69
2021/07/16 06:40:58;;;;;;;22.70;4.95;;;;;;;15.23;68.29;102472.97;5012508;28;20026;-70
2021/07/16 06:43:24;;;;;;;26.73;4.32;;;;;;;15.27;68.30;102467.22;5011968;28;20429;-71
2021/07/16 06:45:49;;;;;;;28.17;4.38;;;;;;;15.34;68.27;102468.38;5012294;28;20065;-69
2021/07/16 06:48:14;;;;;;;19.33;4.68;;;;;;;15.38;66.61;102471.66;5012256;28;20037;-72
2021/07/16 06:50:40;;;;;;;23.45;4.88;;;;;;;15.44;66.91;102467.59;5011509;28;20073;-71
2021/07/16 06:53:05;;;;;;;23.10;4.90;;;;;;;15.45;67.44;102456.75;5030575;28;20037;-71
2021/07/16 06:55:30;;;;;;;22.83;3.95;;;;;;;15.52;68.08;102467.78;5030631;28;20050;-72
2021/07/16 06:57:56;;;;;;;24.85;5.30;;;;;;;15.60;68.45;102464.41;5031986;28;20034;-71
2021/07/16 07:00:21;;;;;;;29.77;6.10;;;;;;;15.72;67.90;102471.44;5032006;28;20034;-72
2021/07/16 07:02:46;;;;;;;31.05;5.25;;;;;;;15.85;66.65;102466.72;5031279;28;20041;-72
2021/07/16 07:05:12;;;;;;;24.60;4.63;;;;;;;15.99;65.48;102468.19;5031781;28;20109;-71
2021/07/16 07:07:37;;;;;;;25.17;5.32;;;;;;;16.12;65.89;102473.34;5031164;28;20112;-70
2021/07/16 07:10:03;;;;;;;21.85;4.30;;;;;;;16.16;65.36;102474.75;5032026;28;20033;-70
2021/07/16 07:12:29;;;;;;;27.33;4.55;;;;;;;16.29;65.04;102484.41;5031362;28;20133;-71
2021/07/16 07:14:54;;;;;;;21.50;4.68;;;;;;;16.33;65.21;102488.50;5031086;28;20112;-71
2021/07/16 07:17:20;;;;;;;24.15;5.15;;;;;;;16.54;65.72;102486.59;5031577;28;20087;-70
2021/07/16 07:19:46;;;;;;;16.80;3.97;;;;;;;16.59;64.40;102488.88;5030993;28;20042;-70
2021/07/16 07:22:11;;;;;;;22.63;4.57;;;;;;;16.67;63.63;102496.22;5032076;28;20083;-70
2021/07/16 07:24:36;;;;;;;31.92;5.68;;;;;;;16.75;63.47;102497.22;5029747;28;20044;-70
2021/07/16 07:27:02;;;;;;;26.90;4.53;;;;;;;16.80;63.59;102496.81;5032039;28;20039;-70
2021/07/16 07:29:30;;;;;;;24.60;4.68;;;;;;;17.01;63.04;102494.03;5029912;28;20076;-71
2021/07/16 07:31:56;;;;;;;23.50;5.15;;;;;;;17.28;62.40;102498.66;5004586;28;20029;-71
2021/07/16 07:34:21;;;;;;;16.30;4.38;;;;;;;17.52;62.57;102499.22;5010479;28;20457;-68
2021/07/16 07:36:48;;;;;;;22.63;4.80;;;;;;;17.54;61.46;102502.59;5011190;28;20030;-70
2021/07/16 07:39:14;;;;;;;27.30;4.50;;;;;;;17.45;62.19;102499.81;5011970;28;20038;-71
2021/07/16 07:41:45;;;;;;;25.33;5.55;;;;;;;17.36;62.07;102502.50;5011377;28;20080;-72
2021/07/16 07:44:10;;;;;;;23.85;5.25;;;;;;;17.34;62.14;102507.19;5012066;28;20033;-70
2021/07/16 07:46:35;;;;;;;22.88;5.05;;;;;;;17.42;63.52;102501.91;5028330;28;20044;-69
2021/07/16 07:49:01;;;;;;;20.20;4.45;;;;;;;17.51;60.57;102516.34;5031449;28;20507;-71
2021/07/16 07:51:26;;;;;;;23.27;4.97;;;;;;;17.62;61.18;102513.50;5030491;28;20038;-70
2021/07/16 07:53:52;;;;;;;26.80;5.68;;;;;;;17.85;59.55;102510.47;5031091;28;20082;-70
2021/07/16 07:56:18;;;;;;;26.10;5.32;;;;;;;17.93;59.24;102511.47;5031628;28;20057;-71
2021/07/16 07:58:43;;;;;;;29.88;5.50;;;;;;;17.94;59.89;102504.22;5030875;28;20029;-71
2021/07/16 08:01:09;;;;;;;19.10;4.45;;;;;;;17.91;60.00;102510.75;5031405;28;20466;-71
2021/07/16 08:03:34;;;;;;;20.48;4.88;;;;;;;17.82;60.43;102508.06;5033240;28;20481;-71
2021/07/16 08:06:00;;;;;;;25.88;4.95;;;;;;;17.79;60.58;102520.84;5035202;28;20096;-70
2021/07/16 08:08:25;;;;;;;28.83;5.57;;;;;;;17.90;60.25;102522.53;5034759;28;20044;-70
2021/07/16 08:10:51;;;;;;;24.48;4.63;;;;;;;18.13;60.02;102517.63;5034507;28;20329;-71
2021/07/16 08:13:16;;;;;;;24.25;5.22;;;;;;;18.25;58.99;102517.44;5033799;28;20071;-71
2021/07/16 08:15:42;;;;;;;22.90;4.65;;;;;;;18.28;59.34;102520.66;5034051;28;20033;-71
2021/07/16 08:18:07;;;;;;;29.23;5.32;;;;;;;18.30;60.09;102524.06;5034667;28;20051;-71
2021/07/16 08:20:33;;;;;;;23.13;5.25;;;;;;;18.26;60.86;102521.84;5034287;28;20049;-73
2021/07/16 08:22:58;;;;;;;24.92;6.07;;;;;;;18.27;60.25;102516.28;5035131;28;20444;-71
2021/07/16 08:25:23;;;;;;;21.67;4.60;;;;;;;18.34;58.96;102519.22;5034527;28;20041;-70
2021/07/16 08:27:49;;;;;;;19.83;4.60;;;;;;;18.12;59.04;102528.53;5034282;28;20041;-71
2021/07/16 08:30:15;;;;;;;17.45;4.32;;;;;;;17.95;59.99;102524.78;5034793;28;20035;-71
2021/07/16 08:32:42;;;;;;;20.85;4.75;;;;;;;18.06;59.50;102535.34;5032526;28;20425;-70
2021/07/16 08:35:08;;;;;;;22.55;5.10;;;;;;;18.00;59.95;102544.03;5034144;28;20037;-71
2021/07/16 08:37:34;;;;;;;30.30;5.70;;;;;;;18.10;59.76;102541.31;5033130;28;20113;-71
2021/07/16 08:40:00;;;;;;;29.67;5.53;;;;;;;17.86;60.57;102541.78;5034168;28;20064;-72
2021/07/16 08:42:26;;;;;;;24.38;5.25;;;;;;;17.74;60.82;102549.19;5034406;28;20034;-71
2021/07/16 08:44:52;;;;;;;25.90;5.18;;;;;;;17.87;60.94;102549.72;5033458;28;20025;-79
2021/07/16 08:47:19;;;;;;;29.08;4.82;;;;;;;18.15;59.01;102547.09;5034419;28;20034;-78
2021/07/16 08:49:45;;;;;;;27.58;5.30;;;;;;;18.13;59.27;102546.41;5025167;28;20048;-78
2021/07/16 08:52:11;;;;;;;24.23;4.93;;;;;;;18.12;59.87;102545.56;5014137;28;20089;-79
2021/07/16 08:54:43;;;;;;;30.48;5.13;;;;;;;18.23;60.54;102546.38;5014074;28;20151;-81
2021/07/16 08:57:09;;;;;;;20.88;4.22;;;;;;;18.33;60.25;102541.75;5014120;28;20046;-75
2021/07/16 08:59:34;;;;;;;23.60;4.80;;;;;;;18.63;59.33;102547.84;5014811;28;20057;-76
2021/07/16 09:02:02;;;;;;;23.67;4.75;;;;;;;18.74;58.30;102544.97;5014268;28;20034;-80
2021/07/16 09:04:27;;;;;;;29.58;5.65;;;;;;;18.82;59.24;102552.28;5014265;28;20125;-79
2021/07/16 09:06:57;;;;;;;21.00;4.53;;;;;;;18.86;58.29;102548.31;5014005;28;20117;-78
2021/07/16 09:09:31;;;;;;;22.48;4.78;;;;;;;18.57;59.33;102552.03;5013112;28;20037;-83
2021/07/16 09:11:58;;;;;;;23.55;4.85;;;;;;;18.70;59.15;102558.91;5031913;28;20104;-77
2021/07/16 09:14:27;;;;;;;25.58;5.15;;;;;;;19.03;58.52;102550.19;5026545;28;20469;-77
2021/07/16 09:17:14;;;;;;;22.52;4.57;;;;;;;19.70;56.64;102557.81;5001590;28;20116;-77
2021/07/16 09:19:45;;;;;;;24.85;5.10;;;;;;;20.48;53.90;102557.94;5013002;28;20470;-77
2021/07/16 09:22:12;;;;;;;20.77;4.90;;;;;;;20.51;53.78;102552.19;5013329;28;20497;-78
2021/07/16 09:24:58;;;;;;;25.95;4.97;;;;;;;20.48;53.84;102549.81;5012949;28;20176;-78
2021/07/16 09:27:36;;;;;;;22.05;4.68;;;;;;;20.18;54.92;102550.22;5013200;28;20037;-79
2021/07/16 09:30:16;;;;;;;24.83;5.40;;;;;;;19.69;56.47;102553.44;5012440;28;20104;-79
2021/07/16 09:32:44;;;;;;;26.42;4.82;;;;;;;19.64;56.67;102563.00;5012413;28;20038;-81
2021/07/16 09:35:16;;;;;;;19.35;5.40;;;;;;;19.84;56.19;102566.38;5012986;28;20029;-78
2021/07/16 09:37:51;;;;;;;;;;;;;;;20.01;54.08;102557.38;5013016;28;20037;-79
2021/07/16 09:40:28;;;;;;;29.30;5.32;;;;;;;20.71;51.64;102560.94;5018412;28;20007;-79
2021/07/16 09:43:00;;;;;;;25.05;5.07;;;;;;;20.48;52.95;102569.63;5031801;28;20029;-81
2021/07/16 09:45:25;;;;;;;23.23;5.07;;;;;;;19.99;54.24;102562.09;5032684;28;20069;-76
2021/07/16 09:47:50;;;;;;;21.65;5.65;;;;;;;19.97;54.61;102566.78;5031910;28;20025;-77
2021/07/16 09:50:20;;;;;;;20.95;4.90;;;;;;;20.07;54.10;102561.31;5032074;28;20029;-82
2021/07/16 09:52:46;;;;;;;20.52;5.10;;;;;;;20.30;55.38;102568.84;5032018;28;20034;-80
2021/07/16 09:55:20;;;;;;;22.55;5.35;;;;;;;20.57;53.74;102570.47;5032029;28;20084;-75
2021/07/16 09:57:52;;;;;;;20.50;4.50;;;;;;;20.11;54.92;102572.63;5031845;28;20093;-76
2021/07/16 10:00:20;;;;;;;22.08;5.95;;;;;;;20.17;54.67;102575.53;5032011;28;20029;-77
2021/07/16 10:02:51;;;;;;;22.48;4.70;;;;;;;20.24;54.03;102579.31;5031507;28;20511;-76
2021/07/16 10:05:17;;;;;;;21.83;5.27;;;;;;;20.35;53.91;102569.22;5031847;28;20124;-78
2021/07/16 10:07:44;;;;;;;24.70;5.13;;;;;;;20.36;54.62;102576.28;5032195;28;20037;-77
2021/07/16 10:10:14;;;;;;;24.08;5.35;;;;;;;20.48;53.95;102572.31;5014573;28;20037;-74
2021/07/16 10:12:44;;;;;;;31.30;5.93;;;;;;;20.82;54.00;102590.34;5032294;28;20048;-79
2021/07/16 10:15:11;;;;;;;28.30;6.28;;;;;;;20.65;53.39;102588.59;5032359;28;20028;-78
2021/07/16 10:17:38;;;;;;;22.08;5.53;;;;;;;20.39;55.01;102589.50;5030480;28;20024;-76
2021/07/16 10:20:15;;;;;;;25.48;5.03;;;;;;;20.21;55.57;102590.44;5030373;28;20466;-77
2021/07/16 10:22:44;;;;;;;25.13;5.60;;;;;;;20.98;54.71;102592.28;5031743;28;20029;-81
2021/07/16 10:25:12;;;;;;;20.50;5.30;;;;;;;22.14;51.33;102588.53;5029524;28;20405;-74
2021/07/16 10:27:42;;;;;;;27.05;6.15;;;;;;;22.83;48.09;102587.94;5030493;28;20030;-77
2021/07/16 10:30:12;;;;;;;24.05;4.97;;;;;;;22.92;47.56;102593.34;5031055;28;20040;-76
2021/07/16 10:32:44;;;;;;;22.45;5.75;;;;;;;22.71;48.84;102597.50;5031980;28;20040;-76
2021/07/16 10:35:23;;;;;;;25.05;5.20;;;;;;;22.43;50.61;102602.56;5030680;28;20492;-77
2021/07/16 10:37:58;;;;;;;29.35;6.03;;;;;;;21.61;51.74;102600.81;5031016;28;20030;-76
2021/07/16 10:40:33;;;;;;;20.10;5.40;;;;;;;22.02;50.90;102603.50;5031591;28;20036;-76
2021/07/16 10:42:58;;;;;;;22.80;5.57;;;;;;;22.23;48.69;102596.63;5030993;28;20036;-76
2021/07/16 10:45:38;;;;;;;25.63;5.35;;;;;;;22.53;47.93;102604.03;5031856;28;20033;-75
2021/07/16 10:48:31;;;;;;;23.95;5.13;;;;;;;21.81;50.28;102599.44;5033646;28;20033;-75
2021/07/16 10:50:57;;;;;;;27.02;5.82;;;;;;;21.65;50.69;102602.19;5031073;28;20033;-81
2021/07/16 10:53:29;;;;;;;23.98;5.32;;;;;;;22.72;48.71;102599.19;5031573;28;20040;-80
2021/07/16 10:55:54;;;;;;;;;;;;;;;23.67;46.54;102610.78;5030966;28;20081;-75
2021/07/16 10:58:24;;;;;;;21.10;5.43;;;;;;;23.21;46.69;102612.50;5031564;28;19959;-79
2021/07/16 11:00:51;;;;;;;30.33;5.13;;;;;;;22.51;49.77;102611.50;5030839;28;20288;-78
2021/07/16 11:03:22;;;;;;;23.13;5.22;;;;;;;22.84;49.11;102608.63;5031599;28;20081;-77
2021/07/16 11:05:47;;;;;;;24.20;5.43;;;;;;;22.89;49.30;102621.66;5031460;28;20112;-76
2021/07/16 11:08:52;;;;;;;21.73;5.22;;;;;;;22.74;49.61;102615.31;5030766;28;20116;-84
2021/07/16 11:11:19;;;;;;;25.98;5.78;;;;;;;22.59;49.96;102615.22;5031365;28;20032;-82
2021/07/16 11:13:51;;;;;;;25.77;5.55;;;;;;;22.47;50.35;102612.03;4988766;28;20046;-79
2021/07/16 11:16:32;;;;;;;24.30;5.32;;;;;;;22.57;49.87;102622.66;5011936;28;20021;-80